Marshall Army Air Field
KFRI : now visible

Airfield :











YOU CAN JOIN US ON...

 
LOGIN :

Register | Disclaimer

   EN    FR    IT 

 









Legend :    VFR   Marginal VFR   IFR   Intensive IFR   Very Intensive IFR
Visi :
Ceiling :
>= 8 km
>= 3000ft
5 to 8 km
1000 to 3000 ft
1500m to 5 km
500 to 1000 ft
800 to 1500m
200 to 500 ft
< 800m
< 200 ft
Symbols :   Thunderstorms  Fog  Heavy snow  Heavy precipitations  Wind > 20 kt







- Airport Elevation : 1065 ft


KFRI - Marshall Army Air Field

CURRENT METAR :
  • 181956Z AUTO 20015G21KT 10SM CLR 37/23 A2973 RMK AO2 SLP052 T03700227

EXPIRED METARs :
  • 181856Z AUTO 19017G21KT 10SM CLR 36/23 A2975 RMK AO2 SLP059 T03610226
  • 181756Z AUTO 20015G23KT 10SM CLR 35/22 A2977 RMK AO2 SLP066 T03470224 10347 20275 57013

TAF TAF KFRI
Valid from the 18 at 13:00 until the 19 at 19:00 UTC


181300Z 1813/1919 19012KT 9999 FEW200 WS020/20040KT QNH2978INS
BECMG 1814/1815 20015G25KT 9999 SCT100 QNH2967INS
BECMG 1902/1903 19012KT 9999 SKC QNH2971INS
BECMG 1914/1915 20015G25KT 9999 SKC QNH2976INS TX39/1820Z TN27/1911Z
KZKC FIR / North America



MET'MAP, your aeronautical weather chart ! - Copyright ORBIFLY December 2007 - Disclaimer

ORBIFLY MET'MAP TEAM :

Programming & Development : Alexandra Zaïnal
Concept & Development : Baudouin d'Aumeries
Co-Development & Prog : Marc-Olivier Méhu
Technical & hardware support : Manuel Goepfert

Contact : metmap@orbifly.com




SOURCES & CREDITS :

   NOAA       Earth
Advisory